EJU1857 LFBD-LEMH
Flight info
| Callsign | EJU1857 |
|---|---|
| Flight time | 1h 1m |
| Altitude | 36000 |
| Route | OBLOC DCT SECHE DCT AGN DCT TOU DCT LOMRA DCT ROCAN DCT GEANT DCT GIR DCT SALON DCT SULID N727 SARGO |
| Aircraft | A320/M-SDE3FGHIRWY/LB1 |
Departure
| Time | 2026-04-14 16:07 |
|---|---|
| Airport | Bordeaux–Mérignac Airport (LFBD) |
Arrival
| Time | 2026-04-14 17:09 |
|---|---|
| Airport | Menorca Airport (LEMH) |
| Time | Latitude | Longitude | Altitude | Speed | Heading |
|---|---|---|---|---|---|
| 2026-04-14 15:35 | 44.82862 | -0.69974 | 169 ft | 0 kts | 16° |
| 2026-04-14 15:57 | 44.82846 | -0.69980 | 169 ft | 4 kts | 10° |
| 2026-04-14 15:58 | 44.82820 | -0.69984 | 169 ft | 4 kts | 353° |
| 2026-04-14 15:58 | 44.82795 | -0.69975 | 169 ft | 2 kts | 333° |
| 2026-04-14 15:58 | 44.82790 | -0.69971 | 169 ft | 0 kts | 333° |
| 2026-04-14 16:02 | 44.82797 | -0.69983 | 169 ft | 6 kts | 310° |
| 2026-04-14 16:02 | 44.82826 | -0.70086 | 169 ft | 14 kts | 287° |
| 2026-04-14 16:03 | 44.82855 | -0.70232 | 169 ft | 17 kts | 286° |
| 2026-04-14 16:03 | 44.82889 | -0.70401 | 170 ft | 16 kts | 283° |
| 2026-04-14 16:03 | 44.82862 | -0.70560 | 170 ft | 18 kts | 281° |
| 2026-04-14 16:03 | 44.82900 | -0.70743 | 170 ft | 21 kts | 286° |
| 2026-04-14 16:04 | 44.82953 | -0.70937 | 170 ft | 19 kts | 322° |
| 2026-04-14 16:04 | 44.83037 | -0.70851 | 169 ft | 17 kts | 54° |
| 2026-04-14 16:04 | 44.83127 | -0.70712 | 168 ft | 21 kts | 45° |
| 2026-04-14 16:04 | 44.83241 | -0.70551 | 166 ft | 25 kts | 45° |
| 2026-04-14 16:05 | 44.83372 | -0.70364 | 165 ft | 29 kts | 45° |
| 2026-04-14 16:05 | 44.83519 | -0.70153 | 163 ft | 28 kts | 46° |
| 2026-04-14 16:05 | 44.83611 | -0.70024 | 162 ft | 11 kts | 44° |
| 2026-04-14 16:05 | 44.83689 | -0.70020 | 161 ft | 14 kts | 335° |
| 2026-04-14 16:06 | 44.83786 | -0.70088 | 160 ft | 18 kts | 333° |
| 2026-04-14 16:06 | 44.83818 | -0.70176 | 161 ft | 11 kts | 223° |
| 2026-04-14 16:06 | 44.83806 | -0.70193 | 161 ft | 0 kts | 224° |
| 2026-04-14 16:06 | 44.83806 | -0.70194 | 161 ft | 1 kts | 224° |
| 2026-04-14 16:07 | 44.83727 | -0.70305 | 162 ft | 47 kts | 225° |
| 2026-04-14 16:07 | 44.83327 | -0.70878 | 170 ft | 113 kts | 225° |
| 2026-04-14 16:07 | 44.82649 | -0.71851 | 214 ft | 160 kts | 226° |
| 2026-04-14 16:07 | 44.81873 | -0.72961 | 883 ft | 160 kts | 225° |
| 2026-04-14 16:08 | 44.81081 | -0.74079 | 1615 ft | 163 kts | 226° |
| 2026-04-14 16:08 | 44.80275 | -0.75218 | 2311 ft | 165 kts | 226° |
| 2026-04-14 16:08 | 44.79409 | -0.76455 | 2616 ft | 190 kts | 226° |
| 2026-04-14 16:08 | 44.78429 | -0.77857 | 2927 ft | 214 kts | 225° |
| 2026-04-14 16:09 | 44.77299 | -0.79343 | 3473 ft | 231 kts | 216° |
| 2026-04-14 16:09 | 44.75798 | -0.80379 | 3980 ft | 253 kts | 195° |
| 2026-04-14 16:09 | 44.73987 | -0.80562 | 4649 ft | 270 kts | 172° |
| 2026-04-14 16:09 | 44.72190 | -0.79698 | 5465 ft | 279 kts | 149° |
| 2026-04-14 16:10 | 44.70754 | -0.77859 | 6370 ft | 284 kts | 124° |
| 2026-04-14 16:10 | 44.69955 | -0.75325 | 7169 ft | 287 kts | 101° |
| 2026-04-14 16:10 | 44.69504 | -0.72586 | 8031 ft | 290 kts | 106° |
| 2026-04-14 16:10 | 44.68706 | -0.69958 | 8888 ft | 295 kts | 119° |
| 2026-04-14 16:11 | 44.67525 | -0.67581 | 9740 ft | 299 kts | 125° |
| 2026-04-14 16:11 | 44.66560 | -0.64994 | 10530 ft | 301 kts | 107° |
| 2026-04-14 16:11 | 44.66150 | -0.62108 | 11214 ft | 306 kts | 91° |
| 2026-04-14 16:11 | 44.66213 | -0.59025 | 11475 ft | 327 kts | 84° |
| 2026-04-14 16:12 | 44.66351 | -0.55774 | 12057 ft | 337 kts | 84° |
| 2026-04-14 16:12 | 44.66476 | -0.52471 | 12801 ft | 341 kts | 84° |
| 2026-04-14 16:12 | 44.66591 | -0.49131 | 13573 ft | 344 kts | 84° |
| 2026-04-14 16:12 | 44.66703 | -0.45753 | 14288 ft | 348 kts | 84° |
| 2026-04-14 16:13 | 44.66816 | -0.42371 | 14939 ft | 351 kts | 84° |
| 2026-04-14 16:13 | 44.66930 | -0.38928 | 15575 ft | 354 kts | 84° |
| 2026-04-14 16:13 | 44.67042 | -0.35476 | 16210 ft | 358 kts | 84° |
| 2026-04-14 16:13 | 44.67157 | -0.31983 | 16844 ft | 361 kts | 83° |
| 2026-04-14 16:14 | 44.67271 | -0.28507 | 17461 ft | 365 kts | 83° |
| 2026-04-14 16:14 | 44.67383 | -0.24983 | 18080 ft | 368 kts | 83° |
| 2026-04-14 16:14 | 44.67494 | -0.21404 | 18666 ft | 372 kts | 83° |
| 2026-04-14 16:14 | 44.67493 | -0.17774 | 19183 ft | 379 kts | 91° |
| 2026-04-14 16:15 | 44.67016 | -0.14097 | 19716 ft | 387 kts | 102° |
| 2026-04-14 16:15 | 44.66019 | -0.10544 | 20227 ft | 396 kts | 112° |
| 2026-04-14 16:15 | 44.64787 | -0.07070 | 20742 ft | 399 kts | 112° |
| 2026-04-14 16:15 | 44.63548 | -0.03575 | 21223 ft | 403 kts | 112° |
| 2026-04-14 16:16 | 44.62296 | -0.00041 | 21762 ft | 407 kts | 112° |
| 2026-04-14 16:16 | 44.61030 | 0.03527 | 22289 ft | 409 kts | 111° |
| 2026-04-14 16:16 | 44.59760 | 0.07110 | 22786 ft | 412 kts | 111° |
| 2026-04-14 16:16 | 44.58476 | 0.10726 | 23260 ft | 416 kts | 111° |
| 2026-04-14 16:17 | 44.57177 | 0.14379 | 23719 ft | 420 kts | 111° |
| 2026-04-14 16:17 | 44.55871 | 0.18047 | 24122 ft | 423 kts | 111° |
| 2026-04-14 16:17 | 44.54549 | 0.21749 | 24522 ft | 426 kts | 111° |
| 2026-04-14 16:17 | 44.53221 | 0.25464 | 24920 ft | 428 kts | 111° |
| 2026-04-14 16:18 | 44.51881 | 0.29213 | 25311 ft | 431 kts | 111° |
| 2026-04-14 16:18 | 44.50534 | 0.32979 | 25695 ft | 433 kts | 111° |
| 2026-04-14 16:18 | 44.49183 | 0.36758 | 26081 ft | 436 kts | 111° |
| 2026-04-14 16:18 | 44.47818 | 0.40557 | 26518 ft | 438 kts | 111° |
| 2026-04-14 16:19 | 44.46435 | 0.44364 | 26937 ft | 441 kts | 113° |
| 2026-04-14 16:19 | 44.44736 | 0.47987 | 27286 ft | 450 kts | 123° |
| 2026-04-14 16:19 | 44.42574 | 0.51210 | 27633 ft | 460 kts | 134° |
| 2026-04-14 16:19 | 44.39982 | 0.53902 | 27976 ft | 468 kts | 146° |
| 2026-04-14 16:20 | 44.37153 | 0.56195 | 28315 ft | 471 kts | 144° |
| 2026-04-14 16:20 | 44.34447 | 0.58768 | 28643 ft | 471 kts | 139° |
| 2026-04-14 16:20 | 44.31862 | 0.61595 | 28982 ft | 472 kts | 136° |
| 2026-04-14 16:20 | 44.29347 | 0.64558 | 29310 ft | 474 kts | 135° |
| 2026-04-14 16:21 | 44.26834 | 0.67571 | 29637 ft | 477 kts | 135° |
| 2026-04-14 16:21 | 44.24280 | 0.70567 | 29956 ft | 481 kts | 136° |
| 2026-04-14 16:21 | 44.21675 | 0.73517 | 30266 ft | 485 kts | 137° |
| 2026-04-14 16:21 | 44.19015 | 0.76430 | 30539 ft | 488 kts | 138° |
| 2026-04-14 16:22 | 44.16311 | 0.79327 | 30784 ft | 492 kts | 138° |
| 2026-04-14 16:22 | 44.13584 | 0.82224 | 31035 ft | 495 kts | 138° |
| 2026-04-14 16:22 | 44.10843 | 0.85141 | 31284 ft | 497 kts | 138° |
| 2026-04-14 16:22 | 44.08102 | 0.88075 | 31523 ft | 499 kts | 137° |
| 2026-04-14 16:23 | 44.05356 | 0.91031 | 31864 ft | 499 kts | 137° |
| 2026-04-14 16:23 | 44.03539 | 0.92994 | 32087 ft | 499 kts | 137° |
| 2026-04-14 16:23 | 43.99877 | 0.96954 | 32523 ft | 500 kts | 137° |
| 2026-04-14 16:23 | 43.97127 | 0.99923 | 32829 ft | 500 kts | 137° |
| 2026-04-14 16:24 | 43.95309 | 1.01884 | 33032 ft | 500 kts | 137° |
| 2026-04-14 16:24 | 43.92560 | 1.04847 | 33368 ft | 501 kts | 137° |
| 2026-04-14 16:24 | 43.89808 | 1.07807 | 33700 ft | 501 kts | 136° |
| 2026-04-14 16:24 | 43.87052 | 1.10761 | 34029 ft | 501 kts | 137° |
| 2026-04-14 16:25 | 43.84288 | 1.13713 | 34335 ft | 501 kts | 137° |
| 2026-04-14 16:25 | 43.81533 | 1.16654 | 34658 ft | 501 kts | 136° |
| 2026-04-14 16:25 | 43.78774 | 1.19595 | 34939 ft | 500 kts | 136° |
| 2026-04-14 16:25 | 43.76000 | 1.22513 | 35211 ft | 502 kts | 140° |
| 2026-04-14 16:26 | 43.72915 | 1.24863 | 35470 ft | 510 kts | 151° |
| 2026-04-14 16:26 | 43.69694 | 1.26892 | 35730 ft | 510 kts | 152° |
| 2026-04-14 16:26 | 43.66459 | 1.28892 | 35982 ft | 509 kts | 152° |
| 2026-04-14 16:26 | 43.63235 | 1.30943 | 36154 ft | 511 kts | 150° |
| 2026-04-14 16:27 | 43.60030 | 1.33077 | 36196 ft | 512 kts | 149° |
| 2026-04-14 16:27 | 43.53613 | 1.37512 | 36192 ft | 513 kts | 149° |
| 2026-04-14 16:28 | 43.47270 | 1.41890 | 36192 ft | 513 kts | 149° |
| 2026-04-14 16:28 | 43.40864 | 1.46225 | 36192 ft | 513 kts | 149° |
| 2026-04-14 16:29 | 43.34402 | 1.50544 | 36189 ft | 513 kts | 150° |
| 2026-04-14 16:29 | 43.27987 | 1.54829 | 36187 ft | 510 kts | 149° |
| 2026-04-14 16:30 | 43.21677 | 1.59049 | 36174 ft | 507 kts | 149° |
| 2026-04-14 16:30 | 43.15344 | 1.63259 | 36184 ft | 506 kts | 149° |
| 2026-04-14 16:31 | 43.09004 | 1.67427 | 36190 ft | 505 kts | 150° |
| 2026-04-14 16:31 | 43.02664 | 1.71588 | 36175 ft | 505 kts | 150° |
| 2026-04-14 16:32 | 42.96335 | 1.75742 | 36180 ft | 504 kts | 149° |
| 2026-04-14 16:32 | 42.90011 | 1.79886 | 36175 ft | 504 kts | 150° |
| 2026-04-14 16:33 | 42.83654 | 1.84056 | 36168 ft | 504 kts | 150° |
| 2026-04-14 16:33 | 42.77333 | 1.88172 | 36170 ft | 504 kts | 150° |
| 2026-04-14 16:34 | 42.71003 | 1.92272 | 36161 ft | 503 kts | 149° |
| 2026-04-14 16:34 | 42.65137 | 1.97138 | 36146 ft | 488 kts | 133° |
| 2026-04-14 16:35 | 42.59920 | 2.03053 | 36138 ft | 488 kts | 134° |
| 2026-04-14 16:35 | 42.54694 | 2.08935 | 36125 ft | 488 kts | 134° |
| 2026-04-14 16:36 | 42.49452 | 2.14804 | 36099 ft | 489 kts | 134° |
| 2026-04-14 16:36 | 42.44209 | 2.20655 | 36097 ft | 488 kts | 134° |
| 2026-04-14 16:37 | 42.38962 | 2.26508 | 36085 ft | 489 kts | 134° |
| 2026-04-14 16:37 | 42.33717 | 2.32357 | 36060 ft | 489 kts | 134° |
| 2026-04-14 16:38 | 42.28474 | 2.38197 | 36066 ft | 489 kts | 134° |
| 2026-04-14 16:38 | 42.23222 | 2.44029 | 36060 ft | 489 kts | 135° |
| 2026-04-14 16:39 | 42.17963 | 2.49849 | 36054 ft | 489 kts | 135° |
| 2026-04-14 16:39 | 42.12700 | 2.55660 | 36055 ft | 489 kts | 135° |
| 2026-04-14 16:40 | 42.07446 | 2.61466 | 36055 ft | 489 kts | 134° |
| 2026-04-14 16:40 | 42.02179 | 2.67263 | 36100 ft | 489 kts | 135° |
| 2026-04-14 16:41 | 41.96912 | 2.73031 | 36058 ft | 488 kts | 135° |
| 2026-04-14 16:41 | 41.91627 | 2.78757 | 36054 ft | 489 kts | 137° |
| 2026-04-14 16:42 | 41.86122 | 2.84150 | 36063 ft | 491 kts | 140° |
| 2026-04-14 16:42 | 41.80484 | 2.89348 | 36075 ft | 492 kts | 140° |
| 2026-04-14 16:43 | 41.74870 | 2.94575 | 36075 ft | 491 kts | 140° |
| 2026-04-14 16:43 | 41.69306 | 2.99882 | 36073 ft | 491 kts | 139° |
| 2026-04-14 16:44 | 41.63756 | 3.05187 | 36086 ft | 491 kts | 139° |
| 2026-04-14 16:44 | 41.58203 | 3.10463 | 36082 ft | 489 kts | 140° |
| 2026-04-14 16:45 | 41.49876 | 3.18304 | 36086 ft | 489 kts | 140° |
| 2026-04-14 16:45 | 41.44178 | 3.23311 | 36087 ft | 491 kts | 144° |
| 2026-04-14 16:46 | 41.38314 | 3.28004 | 36090 ft | 492 kts | 145° |
| 2026-04-14 16:46 | 41.32428 | 3.32677 | 36090 ft | 492 kts | 144° |
| 2026-04-14 16:47 | 41.26595 | 3.37428 | 36088 ft | 492 kts | 144° |
| 2026-04-14 16:47 | 41.20776 | 3.42213 | 36090 ft | 492 kts | 144° |
| 2026-04-14 16:48 | 41.14951 | 3.46985 | 36092 ft | 492 kts | 144° |
| 2026-04-14 16:48 | 41.12030 | 3.49360 | 35905 ft | 492 kts | 144° |
| 2026-04-14 16:48 | 41.09091 | 3.51745 | 34925 ft | 500 kts | 143° |
| 2026-04-14 16:49 | 41.06118 | 3.54153 | 34230 ft | 501 kts | 143° |
| 2026-04-14 16:49 | 41.03145 | 3.56555 | 33604 ft | 498 kts | 143° |
| 2026-04-14 16:49 | 41.00203 | 3.58928 | 33039 ft | 493 kts | 143° |
| 2026-04-14 16:49 | 40.97289 | 3.61281 | 32505 ft | 488 kts | 143° |
| 2026-04-14 16:50 | 40.94415 | 3.63605 | 31990 ft | 482 kts | 144° |
| 2026-04-14 16:50 | 40.91568 | 3.65905 | 31481 ft | 477 kts | 144° |
| 2026-04-14 16:50 | 40.88751 | 3.68177 | 30987 ft | 472 kts | 144° |
| 2026-04-14 16:50 | 40.85960 | 3.70425 | 30516 ft | 467 kts | 144° |
| 2026-04-14 16:51 | 40.83198 | 3.72645 | 29917 ft | 464 kts | 144° |
| 2026-04-14 16:51 | 40.80449 | 3.74853 | 29303 ft | 461 kts | 144° |
| 2026-04-14 16:51 | 40.77725 | 3.77039 | 28738 ft | 457 kts | 144° |
| 2026-04-14 16:51 | 40.75023 | 3.79205 | 28215 ft | 452 kts | 144° |
| 2026-04-14 16:52 | 40.72348 | 3.81342 | 27726 ft | 447 kts | 145° |
| 2026-04-14 16:52 | 40.69711 | 3.83444 | 27318 ft | 439 kts | 145° |
| 2026-04-14 16:52 | 40.67113 | 3.85521 | 26838 ft | 434 kts | 145° |
| 2026-04-14 16:52 | 40.64547 | 3.87575 | 26340 ft | 429 kts | 146° |
| 2026-04-14 16:53 | 40.62008 | 3.89607 | 25843 ft | 425 kts | 146° |
| 2026-04-14 16:53 | 40.59491 | 3.91618 | 25354 ft | 421 kts | 146° |
| 2026-04-14 16:53 | 40.56999 | 3.93607 | 24875 ft | 417 kts | 146° |
| 2026-04-14 16:53 | 40.54526 | 3.95576 | 24411 ft | 413 kts | 146° |
| 2026-04-14 16:54 | 40.52075 | 3.97525 | 23939 ft | 410 kts | 146° |
| 2026-04-14 16:54 | 40.49561 | 3.99253 | 23451 ft | 408 kts | 158° |
| 2026-04-14 16:54 | 40.46850 | 4.00317 | 22916 ft | 405 kts | 163° |
| 2026-04-14 16:54 | 40.44143 | 4.01279 | 22402 ft | 402 kts | 163° |
| 2026-04-14 16:55 | 40.41447 | 4.02231 | 21923 ft | 399 kts | 163° |
| 2026-04-14 16:55 | 40.38777 | 4.03170 | 21481 ft | 395 kts | 163° |
| 2026-04-14 16:55 | 40.36141 | 4.04101 | 21043 ft | 391 kts | 163° |
| 2026-04-14 16:55 | 40.33524 | 4.05031 | 20582 ft | 388 kts | 163° |
| 2026-04-14 16:56 | 40.30925 | 4.05954 | 20129 ft | 386 kts | 163° |
| 2026-04-14 16:56 | 40.28345 | 4.06869 | 19683 ft | 383 kts | 163° |
| 2026-04-14 16:56 | 40.25781 | 4.07778 | 19244 ft | 381 kts | 163° |
| 2026-04-14 16:56 | 40.23229 | 4.08679 | 18818 ft | 379 kts | 163° |
| 2026-04-14 16:57 | 40.20691 | 4.09572 | 18403 ft | 377 kts | 163° |
| 2026-04-14 16:57 | 40.18171 | 4.10460 | 17933 ft | 374 kts | 163° |
| 2026-04-14 16:57 | 40.15662 | 4.11344 | 17472 ft | 372 kts | 163° |
| 2026-04-14 16:57 | 40.13176 | 4.12219 | 17030 ft | 369 kts | 163° |
| 2026-04-14 16:58 | 40.10677 | 4.12938 | 16603 ft | 367 kts | 176° |
| 2026-04-14 16:58 | 40.08183 | 4.12453 | 16218 ft | 363 kts | 203° |
| 2026-04-14 16:58 | 40.06175 | 4.10601 | 16062 ft | 348 kts | 232° |
| 2026-04-14 16:58 | 40.04862 | 4.08047 | 16091 ft | 334 kts | 243° |
| 2026-04-14 16:59 | 40.03746 | 4.05399 | 16091 ft | 332 kts | 243° |
| 2026-04-14 16:59 | 40.02482 | 4.02879 | 15949 ft | 333 kts | 234° |
| 2026-04-14 16:59 | 40.00915 | 4.00641 | 15537 ft | 336 kts | 224° |
| 2026-04-14 16:59 | 39.99086 | 3.98745 | 15177 ft | 336 kts | 216° |
| 2026-04-14 17:00 | 39.97103 | 3.97151 | 14844 ft | 335 kts | 209° |
| 2026-04-14 17:00 | 39.95017 | 3.95823 | 14513 ft | 333 kts | 203° |
| 2026-04-14 17:00 | 39.92849 | 3.94767 | 14182 ft | 332 kts | 197° |
| 2026-04-14 17:00 | 39.90627 | 3.94013 | 13864 ft | 330 kts | 191° |
| 2026-04-14 17:01 | 39.88368 | 3.93571 | 13514 ft | 327 kts | 185° |
| 2026-04-14 17:01 | 39.86104 | 3.93431 | 13161 ft | 325 kts | 178° |
| 2026-04-14 17:01 | 39.83858 | 3.93606 | 12807 ft | 322 kts | 172° |
| 2026-04-14 17:01 | 39.81660 | 3.94089 | 12453 ft | 319 kts | 165° |
| 2026-04-14 17:02 | 39.79529 | 3.94861 | 12096 ft | 317 kts | 159° |
| 2026-04-14 17:02 | 39.78170 | 3.95515 | 11855 ft | 315 kts | 155° |
| 2026-04-14 17:02 | 39.76194 | 3.96715 | 11515 ft | 312 kts | 150° |
| 2026-04-14 17:02 | 39.74338 | 3.98151 | 11160 ft | 309 kts | 144° |
| 2026-04-14 17:03 | 39.72619 | 3.99801 | 10719 ft | 304 kts | 138° |
| 2026-04-14 17:03 | 39.71049 | 4.01650 | 10256 ft | 298 kts | 132° |
| 2026-04-14 17:03 | 39.69675 | 4.03620 | 9780 ft | 297 kts | 127° |
| 2026-04-14 17:03 | 39.68454 | 4.05730 | 9281 ft | 288 kts | 121° |
| 2026-04-14 17:04 | 39.67406 | 4.07933 | 8780 ft | 278 kts | 115° |
| 2026-04-14 17:04 | 39.66557 | 4.10147 | 8291 ft | 270 kts | 110° |
| 2026-04-14 17:04 | 39.65884 | 4.12350 | 7816 ft | 262 kts | 105° |
| 2026-04-14 17:04 | 39.65505 | 4.14632 | 7333 ft | 248 kts | 82° |
| 2026-04-14 17:05 | 39.66034 | 4.16624 | 6880 ft | 234 kts | 49° |
| 2026-04-14 17:05 | 39.67287 | 4.17893 | 6406 ft | 228 kts | 18° |
| 2026-04-14 17:05 | 39.68839 | 4.18313 | 5911 ft | 224 kts | 8° |
| 2026-04-14 17:05 | 39.70373 | 4.18613 | 5412 ft | 222 kts | 8° |
| 2026-04-14 17:06 | 39.71869 | 4.18913 | 4951 ft | 219 kts | 9° |
| 2026-04-14 17:06 | 39.73381 | 4.19222 | 4444 ft | 212 kts | 9° |
| 2026-04-14 17:06 | 39.74792 | 4.19512 | 3959 ft | 199 kts | 8° |
| 2026-04-14 17:06 | 39.76109 | 4.19782 | 3449 ft | 189 kts | 7° |
| 2026-04-14 17:07 | 39.77422 | 4.20047 | 2594 ft | 189 kts | 8° |
| 2026-04-14 17:07 | 39.78714 | 4.20311 | 1824 ft | 184 kts | 7° |
| 2026-04-14 17:07 | 39.79932 | 4.20561 | 1426 ft | 173 kts | 7° |
| 2026-04-14 17:07 | 39.81100 | 4.20804 | 1112 ft | 163 kts | 7° |
| 2026-04-14 17:08 | 39.82145 | 4.21021 | 923 ft | 145 kts | 5° |
| 2026-04-14 17:08 | 39.83133 | 4.21216 | 718 ft | 143 kts | 5° |
| 2026-04-14 17:08 | 39.84116 | 4.21421 | 529 ft | 145 kts | 5° |
| 2026-04-14 17:08 | 39.85116 | 4.21631 | 325 ft | 147 kts | 4° |
| 2026-04-14 17:09 | 39.86066 | 4.21826 | 302 ft | 122 kts | 4° |
| 2026-04-14 17:09 | 39.86738 | 4.21962 | 303 ft | 73 kts | 10° |
| 2026-04-14 17:09 | 39.87070 | 4.22030 | 304 ft | 27 kts | 8° |
| 2026-04-14 17:09 | 39.87241 | 4.22066 | 309 ft | 25 kts | 9° |
| 2026-04-14 17:10 | 39.87383 | 4.22149 | 311 ft | 23 kts | 69° |
| 2026-04-14 17:10 | 39.87372 | 4.22305 | 313 ft | 12 kts | 136° |
| 2026-04-14 17:10 | 39.87284 | 4.22314 | 310 ft | 14 kts | 189° |
| 2026-04-14 17:10 | 39.87174 | 4.22292 | 307 ft | 18 kts | 188° |
| 2026-04-14 17:11 | 39.87036 | 4.22265 | 304 ft | 22 kts | 190° |
| 2026-04-14 17:11 | 39.86868 | 4.22228 | 299 ft | 26 kts | 189° |
| 2026-04-14 17:11 | 39.86685 | 4.22191 | 300 ft | 21 kts | 189° |
| 2026-04-14 17:11 | 39.86579 | 4.22173 | 294 ft | 16 kts | 171° |
| 2026-04-14 17:12 | 39.86542 | 4.22237 | 295 ft | 7 kts | 101° |
| 2026-04-14 17:12 | 39.86540 | 4.22307 | 289 ft | 8 kts | 85° |
| 2026-04-14 17:12 | 39.86536 | 4.22370 | 287 ft | 5 kts | 99° |
| 2026-04-14 17:12 | 39.86532 | 4.22397 | 287 ft | 3 kts | 99° |
| 2026-04-14 17:13 | 39.86530 | 4.22419 | 286 ft | 1 kts | 98° |
| 2026-04-14 17:13 | 39.86529 | 4.22424 | 286 ft | 0 kts | 98° |